createdAt,value
2023-02-12T00:00:51.941Z,31.12
2023-02-12T00:04:53.764Z,31.37
2023-02-12T00:08:56.889Z,31.65
2023-02-12T00:12:58.603Z,30.37
2023-02-12T00:17:00.609Z,31.98
2023-02-12T00:21:03.114Z,30.17
2023-02-12T00:25:05.357Z,30.42
2023-02-12T00:29:07.355Z,32.22
2023-02-12T00:33:09.332Z,30.12
2023-02-12T00:37:11.008Z,30.08
2023-02-12T00:41:13.373Z,30.25
2023-02-12T00:45:15.061Z,31.15
2023-02-12T00:49:18.916Z,30.30
2023-02-12T00:53:20.652Z,32.50
2023-02-12T00:57:22.349Z,30.70
2023-02-12T01:01:24.248Z,31.02
2023-02-12T01:05:26.125Z,29.30
2023-02-12T01:09:27.847Z,29.27
2023-02-12T01:13:31.985Z,30.08
2023-02-12T01:17:33.686Z,31.50
2023-02-12T01:21:35.671Z,30.80
2023-02-12T01:25:38.633Z,29.70
2023-02-12T01:29:44.532Z,30.67
2023-02-12T01:33:50.825Z,30.98
2023-02-12T01:37:52.515Z,31.60
2023-02-12T01:41:54.217Z,30.48
2023-02-12T01:45:56.370Z,29.45
2023-02-12T01:49:58.388Z,30.25
2023-02-12T01:54:04.825Z,29.63
2023-02-12T01:58:07.348Z,31.17
2023-02-12T02:02:09.413Z,30.73
2023-02-12T02:06:31.920Z,30.92
2023-02-12T02:10:33.610Z,29.30
2023-02-12T02:14:36.497Z,28.87
2023-02-12T02:19:01.550Z,29.95
2023-02-12T02:23:30.864Z,28.73
2023-02-12T02:27:51.526Z,28.48
2023-02-12T02:32:18.128Z,30.77
2023-02-12T02:36:47.930Z,27.87
2023-02-12T02:41:08.394Z,28.90
2023-02-12T02:45:17.956Z,30.60
2023-02-12T02:49:33.436Z,29.15
2023-02-12T02:53:58.152Z,30.02
2023-02-12T02:58:07.355Z,32.97
2023-02-12T03:02:35.265Z,31.67
2023-02-12T03:10:50.807Z,38.67
2023-02-12T03:14:59.634Z,38.22
2023-02-12T03:19:32.203Z,37.00
2023-02-12T03:23:52.506Z,37.63
2023-02-12T03:28:00.927Z,34.92
2023-02-12T03:32:28.023Z,34.90
2023-02-12T03:36:41.995Z,34.60
2023-02-12T03:40:51.642Z,35.95
2023-02-12T03:45:01.700Z,35.00
2023-02-12T03:49:24.098Z,32.83
2023-02-12T03:53:27.578Z,34.70
2023-02-12T03:57:35.083Z,34.20
2023-02-12T04:01:36.995Z,31.30
2023-02-12T04:05:38.790Z,32.15
2023-02-12T04:09:40.705Z,32.13
2023-02-12T04:14:20.283Z,35.40
2023-02-12T04:18:42.262Z,33.17
2023-02-12T04:22:49.763Z,33.92
2023-02-12T04:27:23.026Z,33.85
2023-02-12T04:31:33.234Z,33.25
2023-02-12T04:35:47.332Z,31.08
2023-02-12T04:39:51.460Z,29.77
2023-02-12T04:43:53.464Z,29.65
2023-02-12T04:47:55.602Z,27.87
2023-02-12T04:51:57.322Z,29.00
2023-02-12T04:55:59.017Z,29.75
2023-02-12T05:00:00.727Z,29.40
2023-02-12T05:04:03.018Z,26.75
2023-02-12T05:08:04.859Z,30.12
2023-02-12T05:12:06.739Z,29.37
2023-02-12T05:16:08.728Z,31.20
2023-02-12T05:20:10.935Z,27.90
2023-02-12T05:24:12.643Z,30.77
2023-02-12T05:28:14.738Z,29.17
2023-02-12T05:32:16.490Z,28.92
2023-02-12T05:36:21.406Z,27.75
2023-02-12T05:40:23.070Z,27.83
2023-02-12T05:44:24.751Z,29.75
2023-02-12T05:48:27.197Z,27.80
2023-02-12T05:52:28.861Z,30.45
2023-02-12T05:56:32.903Z,29.58
2023-02-12T06:00:34.817Z,30.33
2023-02-12T06:04:36.518Z,27.90
2023-02-12T06:08:39.189Z,31.85
2023-02-12T06:12:40.914Z,29.98
2023-02-12T06:16:45.589Z,29.25
2023-02-12T06:20:47.265Z,30.77
2023-02-12T06:24:48.943Z,28.83
2023-02-12T06:28:51.033Z,30.50
2023-02-12T06:32:53.210Z,29.45
2023-02-12T06:36:54.897Z,30.10
2023-02-12T06:40:56.544Z,29.65
2023-02-12T06:44:58.219Z,31.37
2023-02-12T06:49:01.275Z,31.67
2023-02-12T06:53:03.042Z,30.48
2023-02-12T06:57:04.752Z,29.23
2023-02-12T07:01:13.287Z,30.90
2023-02-12T07:05:15.139Z,30.33
2023-02-12T07:09:16.886Z,28.33
2023-02-12T07:13:18.555Z,28.08
2023-02-12T07:17:20.239Z,30.48
2023-02-12T07:21:22.228Z,31.45
2023-02-12T07:25:23.883Z,31.02
2023-02-12T07:29:25.617Z,30.80
2023-02-12T07:33:27.669Z,29.45
2023-02-12T07:37:29.366Z,30.65
2023-02-12T07:41:34.056Z,32.03
2023-02-12T07:45:35.779Z,31.30
2023-02-12T07:49:37.447Z,31.83
2023-02-12T07:53:39.607Z,33.10
2023-02-12T07:57:41.279Z,32.25
2023-02-12T08:01:46.712Z,32.80
2023-02-12T08:05:48.423Z,31.80
2023-02-12T08:09:50.978Z,34.40
2023-02-12T08:13:53.021Z,33.92
2023-02-12T08:17:55.549Z,36.33
2023-02-12T08:21:57.619Z,36.28
2023-02-12T08:26:37.708Z,33.53
2023-02-12T08:30:39.465Z,32.53
2023-02-12T08:34:41.720Z,35.75
2023-02-12T08:38:44.897Z,36.58
2023-02-12T08:42:46.654Z,39.13
2023-02-12T08:46:50.832Z,35.80
2023-02-12T08:50:52.619Z,35.67
2023-02-12T08:54:54.476Z,37.45
2023-02-12T08:59:00.038Z,38.85
2023-02-12T09:03:01.746Z,37.78
2023-02-12T09:07:03.517Z,39.65
2023-02-12T09:11:10.574Z,40.70
2023-02-12T09:15:12.217Z,39.30
2023-02-12T09:19:15.211Z,38.70
2023-02-12T09:23:16.929Z,37.72
2023-02-12T09:27:18.802Z,38.35
2023-02-12T09:31:29.891Z,38.38
2023-02-12T09:35:34.916Z,37.38
2023-02-12T09:39:36.670Z,35.45
2023-02-12T09:44:06.671Z,35.75
2023-02-12T09:48:30.385Z,36.38
2023-02-12T09:52:33.376Z,35.60
2023-02-12T09:56:38.822Z,34.97
2023-02-12T10:00:40.510Z,35.38
2023-02-12T10:04:58.935Z,35.70
2023-02-12T10:09:35.785Z,34.03
2023-02-12T10:14:01.938Z,33.95
2023-02-12T10:18:09.748Z,29.80
2023-02-12T10:22:34.137Z,32.15
2023-02-12T10:26:47.542Z,30.90
2023-02-12T10:30:54.700Z,31.95
2023-02-12T10:39:19.820Z,29.40
2023-02-12T10:43:21.539Z,30.02
2023-02-12T10:47:24.580Z,31.23
2023-02-12T10:51:48.699Z,29.52
2023-02-12T10:56:03.992Z,29.05
2023-02-12T11:00:32.065Z,29.08
2023-02-12T11:04:33.856Z,29.70
2023-02-12T11:08:38.945Z,29.63
2023-02-12T11:12:48.045Z,29.27
2023-02-12T11:16:55.181Z,30.48
2023-02-12T11:20:58.947Z,28.77
2023-02-12T11:25:08.446Z,30.73
2023-02-12T11:29:24.474Z,27.73
2023-02-12T11:33:29.195Z,29.20
2023-02-12T11:37:35.665Z,30.33
2023-02-12T11:41:40.740Z,27.93
2023-02-12T11:45:49.724Z,29.35
2023-02-12T11:49:59.939Z,29.83
2023-02-12T11:54:04.411Z,25.67
2023-02-12T11:58:21.062Z,26.77
2023-02-12T12:02:36.094Z,24.97
2023-02-12T12:06:39.707Z,25.55
2023-02-12T12:11:16.356Z,23.83
2023-02-12T12:15:52.932Z,24.55
2023-02-12T12:20:17.136Z,23.70
2023-02-12T12:24:37.116Z,23.45
2023-02-12T12:29:15.881Z,22.62
2023-02-12T12:33:41.708Z,23.02
2023-02-12T12:38:00.101Z,24.55
2023-02-12T12:42:21.408Z,22.67
2023-02-12T12:46:37.486Z,24.17
2023-02-12T12:51:09.234Z,23.52
2023-02-12T12:55:33.249Z,23.80
2023-02-12T13:00:19.740Z,23.25
2023-02-12T13:04:47.900Z,22.58
2023-02-12T13:08:55.893Z,22.42
2023-02-12T13:13:09.648Z,23.45
2023-02-12T13:17:25.842Z,22.85
2023-02-12T13:21:51.295Z,21.15
2023-02-12T13:26:18.284Z,23.33
2023-02-12T13:30:29.278Z,22.67
2023-02-12T13:34:34.534Z,22.73
2023-02-12T13:38:58.275Z,22.95
2023-02-12T13:43:23.314Z,22.20
2023-02-12T13:47:48.117Z,22.75
2023-02-12T13:52:05.152Z,23.15
2023-02-12T13:56:51.971Z,22.37
2023-02-12T14:00:53.586Z,21.90
2023-02-12T14:05:00.641Z,22.55
2023-02-12T14:09:11.312Z,22.58
2023-02-12T14:13:28.072Z,23.05
2023-02-12T14:17:30.685Z,22.75
2023-02-12T14:21:35.805Z,22.17
2023-02-12T14:25:42.039Z,22.37
2023-02-12T14:30:06.672Z,20.08
2023-02-12T14:34:08.312Z,21.00
2023-02-12T14:38:10.234Z,22.33
2023-02-12T14:42:31.874Z,21.98
2023-02-12T14:46:36.704Z,21.77
2023-02-12T14:50:51.957Z,23.62
2023-02-12T14:55:03.839Z,22.80
2023-02-12T14:59:11.883Z,23.25
2023-02-12T15:03:13.592Z,22.87
2023-02-12T15:07:24.189Z,22.45
2023-02-12T15:11:51.925Z,21.10
2023-02-12T15:16:07.096Z,22.60
2023-02-12T15:20:16.867Z,22.65
2023-02-12T15:24:26.029Z,22.87
2023-02-12T15:28:35.067Z,23.20
2023-02-12T15:32:38.410Z,23.20
2023-02-12T15:36:44.944Z,24.67
2023-02-12T15:40:55.300Z,24.48
2023-02-12T15:45:26.394Z,24.73
2023-02-12T15:49:38.747Z,23.52
2023-02-12T15:53:41.532Z,24.27
2023-02-12T15:57:54.426Z,24.48
2023-02-12T16:02:00.418Z,24.15
2023-02-12T16:06:13.660Z,24.42
2023-02-12T16:10:20.047Z,24.70
2023-02-12T16:14:31.698Z,27.43
2023-02-12T16:18:33.487Z,24.70
2023-02-12T16:22:41.064Z,25.15
2023-02-12T16:26:47.654Z,24.67
2023-02-12T16:30:51.442Z,26.33
2023-02-12T16:35:00.657Z,24.90
2023-02-12T16:39:05.148Z,26.33
2023-02-12T16:43:24.739Z,24.63
2023-02-12T16:47:26.908Z,26.10
2023-02-12T16:51:33.982Z,26.42
2023-02-12T16:55:36.659Z,26.02
2023-02-12T16:59:43.320Z,26.48
2023-02-12T17:03:47.589Z,26.48
2023-02-12T17:07:50.243Z,25.92
2023-02-12T17:11:51.973Z,28.12
2023-02-12T17:15:59.685Z,27.48
2023-02-12T17:20:01.558Z,26.90
2023-02-12T17:24:07.631Z,26.65
2023-02-12T17:28:09.366Z,25.75
2023-02-12T17:32:11.385Z,26.70
2023-02-12T17:36:13.227Z,24.50
2023-02-12T17:40:15.350Z,27.10
2023-02-12T17:44:17.119Z,25.60
2023-02-12T17:48:22.055Z,26.17
2023-02-12T17:52:23.801Z,24.25
2023-02-12T17:56:25.680Z,25.55
2023-02-12T18:00:27.482Z,25.67
2023-02-12T18:04:30.729Z,25.45
2023-02-12T18:08:32.731Z,24.05
2023-02-12T18:12:34.978Z,24.90
2023-02-12T18:16:36.713Z,23.20
2023-02-12T18:20:40.777Z,24.12
2023-02-12T18:24:44.163Z,21.87
2023-02-12T18:28:46.436Z,22.67
2023-02-12T18:32:48.126Z,21.85
2023-02-12T18:36:50.138Z,21.30
2023-02-12T18:40:51.904Z,21.40
2023-02-12T18:44:53.669Z,21.70
2023-02-12T18:48:56.170Z,20.75
2023-02-12T18:52:57.876Z,19.02
2023-02-12T18:56:59.579Z,18.15
2023-02-12T19:01:01.627Z,17.45
2023-02-12T19:05:03.422Z,17.52
2023-02-12T19:09:05.101Z,17.10
2023-02-12T19:13:06.956Z,17.08
2023-02-12T19:17:08.643Z,18.50
2023-02-12T19:21:12.883Z,16.70
2023-02-12T19:25:14.685Z,14.63
2023-02-12T19:29:16.343Z,15.15
2023-02-12T19:33:18.050Z,15.57
2023-02-12T19:37:20.026Z,15.32
2023-02-12T19:41:23.910Z,15.13
2023-02-12T19:45:25.622Z,14.60
2023-02-12T19:49:28.887Z,15.20
2023-02-12T19:53:30.599Z,15.07
2023-02-12T19:57:33.289Z,14.95
2023-02-12T20:01:35.784Z,15.40
2023-02-12T20:05:44.465Z,14.45
2023-02-12T20:09:49.914Z,13.90
2023-02-12T20:13:51.776Z,14.65
2023-02-12T20:17:53.582Z,13.40
2023-02-12T20:21:57.422Z,14.05
2023-02-12T20:25:59.107Z,14.15
2023-02-12T20:30:00.845Z,13.25
2023-02-12T20:34:06.155Z,12.95
2023-02-12T20:38:08.069Z,11.23
2023-02-12T20:42:10.018Z,11.52
2023-02-12T20:46:14.701Z,11.95
2023-02-12T20:50:16.762Z,12.27
2023-02-12T20:54:18.652Z,12.15
2023-02-12T20:58:20.333Z,11.93
2023-02-12T21:02:22.115Z,11.12
2023-02-12T21:06:24.489Z,12.02
2023-02-12T21:10:27.697Z,10.73
2023-02-12T21:14:30.403Z,10.95
2023-02-12T21:18:32.503Z,10.50
2023-02-12T21:22:34.256Z,10.00
2023-02-12T21:26:36.447Z,10.05
2023-02-12T21:30:38.197Z,10.13
2023-02-12T21:34:40.160Z,9.13
2023-02-12T21:38:44.210Z,9.90
2023-02-12T21:42:45.902Z,9.38
2023-02-12T21:46:47.731Z,8.65
2023-02-12T21:50:49.425Z,9.50
2023-02-12T21:54:51.648Z,9.27
2023-02-12T21:58:53.718Z,9.05
2023-02-12T22:02:55.431Z,8.57
2023-02-12T22:06:58.150Z,8.30
2023-02-12T22:11:03.638Z,8.82
2023-02-12T22:15:05.654Z,8.68
2023-02-12T22:19:07.819Z,8.40
2023-02-12T22:23:10.456Z,8.57
2023-02-12T22:27:12.139Z,8.05
2023-02-12T22:31:19.531Z,8.45
2023-02-12T22:35:21.307Z,7.75
2023-02-12T22:39:23.099Z,7.40
2023-02-12T22:43:24.769Z,7.68
2023-02-12T22:47:28.805Z,6.50
2023-02-12T22:51:32.317Z,7.60
2023-02-12T22:55:36.547Z,7.05
2023-02-12T22:59:38.244Z,6.60
2023-02-12T23:03:40.228Z,6.70
2023-02-12T23:07:41.990Z,6.30
2023-02-12T23:11:43.884Z,7.20
2023-02-12T23:15:45.626Z,6.70
2023-02-12T23:19:47.314Z,6.90
2023-02-12T23:23:49.081Z,6.65
2023-02-12T23:27:50.785Z,6.40
2023-02-12T23:31:52.553Z,6.22
2023-02-12T23:35:54.334Z,6.50
2023-02-12T23:39:55.979Z,5.43
2023-02-12T23:43:57.686Z,6.95
2023-02-12T23:47:59.390Z,6.78
2023-02-12T23:52:01.825Z,6.65
2023-02-12T23:56:03.690Z,7.28
